METAR Data
IDs: Format: Raw Decoded Include TAF

Data at: 0829 UTC 01 Aug 2021

KUGN 010755Z AUTO 32004KT 6SM HZ CLR 19/17 A2993 RMK AO2 SLP125 T01940167